createdAt,value
2019-04-25T00:00:38.440Z,1002.66
2019-04-25T00:01:38.292Z,1002.54
2019-04-25T00:02:38.238Z,1002.53
2019-04-25T00:03:38.946Z,1002.61
2019-04-25T00:04:38.746Z,1002.55
2019-04-25T00:05:38.853Z,1002.60
2019-04-25T00:06:38.633Z,1002.52
2019-04-25T00:07:38.758Z,1002.53
2019-04-25T00:08:38.928Z,1002.63
2019-04-25T00:09:39.073Z,1002.60
2019-04-25T00:10:39.251Z,1002.49
2019-04-25T00:11:39.374Z,1002.64
2019-04-25T00:12:42.347Z,1002.66
2019-04-25T00:13:39.766Z,1002.61
2019-04-25T00:14:41.435Z,1002.56
2019-04-25T00:15:40.019Z,1002.63
2019-04-25T00:16:41.376Z,1002.65
2019-04-25T00:17:41.935Z,1002.60
2019-04-25T00:18:41.942Z,1002.59
2019-04-25T00:19:42.236Z,1002.54
2019-04-25T00:20:42.666Z,1002.54
2019-04-25T00:21:43.093Z,1002.45
2019-04-25T00:22:42.919Z,1002.40
2019-04-25T00:23:43.537Z,1002.48
2019-04-25T00:24:43.307Z,1002.43
2019-04-25T00:25:46.744Z,1002.37
2019-04-25T00:26:44.130Z,1002.37
2019-04-25T00:27:45.868Z,1002.41
2019-04-25T00:28:44.346Z,1002.49
2019-04-25T00:29:45.562Z,1002.53
2019-04-25T00:30:44.433Z,1002.46
2019-04-25T00:31:43.681Z,1002.43
2019-04-25T00:32:45.048Z,1002.42
2019-04-25T00:33:44.906Z,1002.39
2019-04-25T00:34:45.661Z,1002.31
2019-04-25T00:35:45.677Z,1002.28
2019-04-25T00:36:45.548Z,1002.25
2019-04-25T00:37:45.169Z,1002.22
2019-04-25T00:38:46.265Z,1002.16
2019-04-25T00:39:46.124Z,1002.17
2019-04-25T00:40:44.745Z,1002.16
2019-04-25T00:41:46.262Z,1002.24
2019-04-25T00:42:46.218Z,1002.25
2019-04-25T00:43:45.861Z,1002.22
2019-04-25T00:44:45.926Z,1002.27
2019-04-25T00:45:45.735Z,1002.25
2019-04-25T00:46:48.765Z,1002.35
2019-04-25T00:47:46.739Z,1002.17
2019-04-25T00:48:45.970Z,1002.29
2019-04-25T00:49:46.126Z,1002.29
2019-04-25T00:50:46.881Z,1002.35
2019-04-25T00:51:46.867Z,1002.27
2019-04-25T00:52:48.255Z,1002.29
2019-04-25T00:53:46.809Z,1002.30
2019-04-25T00:54:48.347Z,1002.34
2019-04-25T00:55:47.072Z,1002.31
2019-04-25T00:56:48.282Z,1002.25
2019-04-25T00:57:48.791Z,1002.24
2019-04-25T00:58:47.567Z,1002.10
2019-04-25T00:59:48.956Z,1002.09
2019-04-25T01:00:47.845Z,1002.11
2019-04-25T01:01:48.075Z,1002.10
2019-04-25T01:02:49.868Z,1002.08
2019-04-25T01:03:49.276Z,1002.12
2019-04-25T01:04:49.246Z,1002.16
2019-04-25T01:05:49.581Z,1002.13
2019-04-25T01:06:49.726Z,1002.06
2019-04-25T01:07:49.832Z,1002.06
2019-04-25T01:08:49.821Z,1002.02
2019-04-25T01:09:49.959Z,1002.10
2019-04-25T01:10:50.404Z,1002.09
2019-04-25T01:11:50.037Z,1002.09
2019-04-25T01:12:52.043Z,1002.19
2019-04-25T01:13:51.911Z,1002.29
2019-04-25T01:14:52.524Z,1002.27
2019-04-25T01:15:52.558Z,1002.27
2019-04-25T01:16:52.677Z,1002.28
2019-04-25T01:17:51.548Z,1002.22
2019-04-25T01:18:54.364Z,1002.22
2019-04-25T01:19:51.406Z,1002.24
2019-04-25T01:20:53.314Z,1002.21
2019-04-25T01:21:51.699Z,1002.24
2019-04-25T01:22:51.943Z,1002.19
2019-04-25T01:23:53.682Z,1002.20
2019-04-25T01:24:53.866Z,1002.12
2019-04-25T01:25:53.767Z,1002.15
2019-04-25T01:26:54.589Z,1002.20
2019-04-25T01:27:54.764Z,1002.31
2019-04-25T01:28:54.057Z,1002.28
2019-04-25T01:29:55.286Z,1002.34
2019-04-25T01:30:55.136Z,1002.48
2019-04-25T01:31:54.388Z,1002.53
2019-04-25T01:32:55.419Z,1002.57
2019-04-25T01:33:55.618Z,1002.67
2019-04-25T01:34:58.391Z,1002.65
2019-04-25T01:35:56.939Z,1002.63
2019-04-25T01:36:55.050Z,1002.64
2019-04-25T01:37:56.096Z,1002.64
2019-04-25T01:38:56.628Z,1002.65
2019-04-25T01:39:56.171Z,1002.67
2019-04-25T01:40:55.640Z,1002.69
2019-04-25T01:41:56.131Z,1002.68
2019-04-25T01:42:55.851Z,1002.79
2019-04-25T01:43:57.696Z,1002.90
2019-04-25T01:44:58.090Z,1002.88
2019-04-25T01:45:56.091Z,1002.87
2019-04-25T01:46:56.509Z,1002.94
2019-04-25T01:47:56.430Z,1002.99
2019-04-25T01:48:56.599Z,1003.02
2019-04-25T01:49:56.777Z,1003.05
2019-04-25T01:50:56.931Z,1003.04
2019-04-25T01:51:57.504Z,1003.20
2019-04-25T01:52:58.734Z,1003.12
2019-04-25T01:53:57.347Z,1002.97
2019-04-25T01:54:57.482Z,1003.10
2019-04-25T01:56:02.763Z,1003.03
2019-04-25T01:56:59.864Z,1003.04
2019-04-25T01:57:58.065Z,1003.03
2019-04-25T01:58:58.206Z,1003.08
2019-04-25T01:59:58.356Z,1003.10
2019-04-25T02:00:58.608Z,1003.13
2019-04-25T02:01:58.932Z,1003.15
2019-04-25T02:02:58.808Z,1003.08
2019-04-25T02:03:59.071Z,1003.05
2019-04-25T02:04:59.971Z,1003.07
2019-04-25T02:06:00.338Z,1003.00
2019-04-25T02:06:59.618Z,1003.01
2019-04-25T02:07:59.745Z,1003.08
2019-04-25T02:09:00.376Z,1003.04
2019-04-25T02:10:00.385Z,1003.14
2019-04-25T02:11:00.216Z,1003.05
2019-04-25T02:12:00.468Z,1003.06
2019-04-25T02:13:00.599Z,1003.08
2019-04-25T02:14:00.828Z,1003.04
2019-04-25T02:15:03.940Z,1003.12
2019-04-25T02:16:01.872Z,1003.21
2019-04-25T02:17:02.311Z,1003.11
2019-04-25T02:18:01.861Z,1003.05
2019-04-25T02:19:02.417Z,1003.20
2019-04-25T02:20:02.042Z,1003.13
2019-04-25T02:21:04.358Z,1003.21
2019-04-25T02:22:03.898Z,1003.14
2019-04-25T02:23:04.089Z,1003.13
2019-04-25T02:24:05.455Z,1003.09
2019-04-25T02:25:04.580Z,1003.04
2019-04-25T02:26:15.286Z,1003.09
2019-04-25T02:27:04.917Z,1003.06
2019-04-25T02:28:05.701Z,1003.04
2019-04-25T02:29:04.698Z,1003.09
2019-04-25T02:30:06.984Z,1003.13
2019-04-25T02:31:08.339Z,1003.06
2019-04-25T02:32:09.091Z,1002.98
2019-04-25T02:33:08.762Z,1003.05
2019-04-25T02:34:08.557Z,1002.99
2019-04-25T02:35:09.161Z,1003.06
2019-04-25T02:36:08.627Z,1003.15
2019-04-25T02:37:09.485Z,1003.20
2019-04-25T02:38:08.830Z,1003.07
2019-04-25T02:39:08.994Z,1003.12
2019-04-25T02:40:08.453Z,1003.10
2019-04-25T02:41:08.746Z,1003.03
2019-04-25T02:42:08.488Z,1003.00
2019-04-25T02:43:08.296Z,1002.90
2019-04-25T02:44:09.952Z,1002.96
2019-04-25T02:45:08.602Z,1002.89
2019-04-25T02:46:08.113Z,1002.87
2019-04-25T02:47:08.445Z,1002.91
2019-04-25T02:48:07.478Z,1002.84
2019-04-25T02:49:09.149Z,1002.85
2019-04-25T02:50:09.134Z,1002.89
2019-04-25T02:51:08.070Z,1002.91
2019-04-25T02:52:12.638Z,1002.86
2019-04-25T02:53:08.424Z,1002.85
2019-04-25T02:54:08.547Z,1002.90
2019-04-25T02:55:10.591Z,1002.80
2019-04-25T02:56:27.474Z,1002.85
2019-04-25T02:57:10.038Z,1002.79
2019-04-25T02:58:10.168Z,1002.84
2019-04-25T02:59:09.488Z,1002.81
2019-04-25T03:00:08.902Z,1002.74
2019-04-25T03:01:17.994Z,1002.84
2019-04-25T03:02:10.901Z,1002.82
2019-04-25T03:03:09.092Z,1002.86
2019-04-25T03:04:11.392Z,1002.93
2019-04-25T03:05:10.417Z,1002.89
2019-04-25T03:06:09.938Z,1002.89
2019-04-25T03:07:11.342Z,1002.97
2019-04-25T03:08:10.978Z,1003.03
2019-04-25T03:09:10.896Z,1003.01
2019-04-25T03:10:10.253Z,1002.93
2019-04-25T03:11:10.362Z,1002.97
2019-04-25T03:12:25.433Z,1003.02
2019-04-25T03:13:12.548Z,1003.04
2019-04-25T03:14:11.821Z,1003.15
2019-04-25T03:15:11.043Z,1003.02
2019-04-25T03:16:13.748Z,1003.04
2019-04-25T03:17:11.405Z,1003.09
2019-04-25T03:18:14.534Z,1003.12
2019-04-25T03:19:14.108Z,1003.02
2019-04-25T03:20:14.834Z,1003.07
2019-04-25T03:21:14.840Z,1002.97
2019-04-25T03:22:15.121Z,1003.09
2019-04-25T03:23:14.497Z,1003.02
2019-04-25T03:24:16.617Z,1003.02
2019-04-25T03:25:17.313Z,1003.04
2019-04-25T03:26:13.930Z,1003.11
2019-04-25T03:27:14.257Z,1003.02
2019-04-25T03:28:13.534Z,1002.99
2019-04-25T03:29:14.317Z,1002.89
2019-04-25T03:30:17.661Z,1002.93
2019-04-25T03:31:21.780Z,1003.05
2019-04-25T03:32:19.550Z,1002.90
2019-04-25T03:33:19.355Z,1002.98
2019-04-25T03:34:20.298Z,1003.07
2019-04-25T03:35:16.318Z,1003.03
2019-04-25T03:36:17.048Z,1002.99
2019-04-25T03:37:14.704Z,1003.01
2019-04-25T03:38:15.387Z,1002.87
2019-04-25T03:39:16.524Z,1002.79
2019-04-25T03:40:15.218Z,1002.80
2019-04-25T03:41:15.344Z,1002.85
2019-04-25T03:42:15.572Z,1002.88
2019-04-25T03:43:15.695Z,1002.94
2019-04-25T03:44:15.931Z,1002.85
2019-04-25T03:45:16.065Z,1002.71
2019-04-25T03:46:16.892Z,1002.86
2019-04-25T03:47:16.358Z,1003.00
2019-04-25T03:48:16.477Z,1003.00
2019-04-25T03:49:16.613Z,1002.96
2019-04-25T03:50:16.852Z,1003.05
2019-04-25T03:51:17.070Z,1003.02
2019-04-25T03:52:17.405Z,1003.00
2019-04-25T03:53:17.434Z,1003.04
2019-04-25T03:54:17.561Z,1003.07
2019-04-25T03:55:18.709Z,1003.08
2019-04-25T03:56:18.890Z,1003.06
2019-04-25T03:57:18.102Z,1003.07
2019-04-25T03:58:18.341Z,1003.07
2019-04-25T03:59:19.413Z,1003.12
2019-04-25T04:00:18.638Z,1003.11
2019-04-25T04:01:18.766Z,1003.17
2019-04-25T04:02:19.021Z,1003.18
2019-04-25T04:03:19.169Z,1003.20
2019-04-25T04:04:19.301Z,1003.22
2019-04-25T04:05:19.421Z,1003.16
2019-04-25T04:06:19.657Z,1003.23
2019-04-25T04:07:19.789Z,1003.18
2019-04-25T04:08:20.057Z,1003.15
2019-04-25T04:09:20.165Z,1003.20
2019-04-25T04:10:21.275Z,1003.26
2019-04-25T04:11:21.571Z,1003.26
2019-04-25T04:12:20.772Z,1003.25
2019-04-25T04:13:21.017Z,1003.23
2019-04-25T04:14:21.398Z,1003.18
2019-04-25T04:15:21.435Z,1003.22
2019-04-25T04:16:23.163Z,1003.32
2019-04-25T04:17:21.556Z,1003.30
2019-04-25T04:18:21.787Z,1003.28
2019-04-25T04:19:22.040Z,1003.27
2019-04-25T04:20:23.458Z,1003.39
2019-04-25T04:21:23.513Z,1003.27
2019-04-25T04:22:24.131Z,1003.30
2019-04-25T04:23:23.232Z,1003.29
2019-04-25T04:24:25.842Z,1003.29
2019-04-25T04:25:23.594Z,1003.26
2019-04-25T04:26:24.301Z,1003.20
2019-04-25T04:27:23.970Z,1003.28
2019-04-25T04:28:24.635Z,1003.29
2019-04-25T04:29:25.492Z,1003.23
2019-04-25T04:30:24.992Z,1003.30
2019-04-25T04:31:24.247Z,1003.22
2019-04-25T04:32:24.483Z,1003.22
2019-04-25T04:33:31.895Z,1003.25
2019-04-25T04:34:26.820Z,1003.23
2019-04-25T04:35:25.011Z,1003.22
2019-04-25T04:36:25.120Z,1003.21
2019-04-25T04:37:25.254Z,1003.27
2019-04-25T04:38:25.401Z,1003.21
2019-04-25T04:39:25.533Z,1003.15
2019-04-25T04:40:25.774Z,1003.19
2019-04-25T04:41:25.929Z,1003.08
2019-04-25T04:42:26.033Z,1003.04
2019-04-25T04:43:26.184Z,1003.12
2019-04-25T04:44:26.303Z,1003.02
2019-04-25T04:45:27.403Z,1003.00
2019-04-25T04:46:26.645Z,1002.99
2019-04-25T04:47:26.788Z,1002.98
2019-04-25T04:48:26.934Z,1002.95
2019-04-25T04:49:27.170Z,1003.04
2019-04-25T04:50:27.315Z,1002.95
2019-04-25T04:51:27.533Z,1003.06
2019-04-25T04:52:28.411Z,1003.00
2019-04-25T04:53:27.986Z,1002.95
2019-04-25T04:54:28.229Z,1003.05
2019-04-25T04:55:28.348Z,1002.95
2019-04-25T04:56:28.567Z,1003.05
2019-04-25T04:57:33.299Z,1002.89
2019-04-25T04:58:31.024Z,1002.91
2019-04-25T04:59:29.415Z,1002.91
2019-04-25T05:00:29.396Z,1002.94
2019-04-25T05:01:29.618Z,1003.06
2019-04-25T05:02:29.866Z,1003.06
2019-04-25T05:03:29.979Z,1003.09
2019-04-25T05:04:30.929Z,1003.05
2019-04-25T05:05:30.637Z,1002.98
2019-04-25T05:06:31.614Z,1002.99
2019-04-25T05:07:30.734Z,1003.04
2019-04-25T05:08:30.932Z,1003.07
2019-04-25T05:09:31.046Z,1003.06
2019-04-25T05:10:33.276Z,1002.89
2019-04-25T05:11:31.552Z,1002.92
2019-04-25T05:12:31.771Z,1002.93
2019-04-25T05:13:31.907Z,1002.90
2019-04-25T05:14:33.685Z,1002.82
2019-04-25T05:15:33.372Z,1002.55
2019-04-25T05:16:33.173Z,1002.24
2019-04-25T05:17:34.241Z,1002.05
2019-04-25T05:18:39.445Z,1001.90
2019-04-25T05:19:34.957Z,1001.56
2019-04-25T05:20:35.478Z,1001.35
2019-04-25T05:21:34.242Z,1001.35
2019-04-25T05:22:34.399Z,1001.42
2019-04-25T05:23:34.375Z,1001.54
2019-04-25T05:24:34.831Z,1001.57
2019-04-25T05:25:34.514Z,1001.83
2019-04-25T05:26:35.903Z,1001.62
2019-04-25T05:27:46.321Z,1001.56
2019-04-25T05:28:36.534Z,1001.23
2019-04-25T05:29:34.728Z,1001.20
2019-04-25T05:30:34.965Z,1000.77
2019-04-25T05:31:35.171Z,1000.46
2019-04-25T05:32:35.403Z,1000.32
2019-04-25T05:33:35.622Z,1000.38
2019-04-25T05:34:36.432Z,1000.54
2019-04-25T05:35:36.029Z,1000.55
2019-04-25T05:36:36.235Z,1000.57
2019-04-25T05:37:36.924Z,1000.77
2019-04-25T05:38:36.600Z,1000.89
2019-04-25T05:39:37.442Z,1001.04
2019-04-25T05:40:36.957Z,1001.01
2019-04-25T05:41:37.166Z,1000.96
2019-04-25T05:42:37.361Z,1000.83
2019-04-25T05:43:37.545Z,1000.77
2019-04-25T05:44:37.730Z,1000.68
2019-04-25T05:45:37.917Z,1000.72
2019-04-25T05:46:38.109Z,1000.82
2019-04-25T05:47:38.299Z,1000.91
2019-04-25T05:48:38.516Z,1001.04
2019-04-25T05:49:38.743Z,1001.05
2019-04-25T05:50:38.932Z,1001.12
2019-04-25T05:51:39.127Z,1001.25
2019-04-25T05:52:39.339Z,1001.23
2019-04-25T05:53:39.577Z,1001.26
2019-04-25T05:54:39.664Z,1001.26
2019-04-25T05:55:39.902Z,1001.25
2019-04-25T05:56:40.099Z,1001.32
2019-04-25T05:57:47.764Z,1001.42
2019-04-25T05:58:43.934Z,1001.44
2019-04-25T05:59:40.660Z,1001.42
2019-04-25T06:00:40.889Z,1001.39
2019-04-25T06:01:41.095Z,1001.56
2019-04-25T06:02:41.360Z,1001.46
2019-04-25T06:03:41.465Z,1001.53
2019-04-25T06:04:41.599Z,1001.34
2019-04-25T06:05:43.247Z,1001.38
2019-04-25T06:06:41.998Z,1001.10
2019-04-25T06:07:43.233Z,1000.98
2019-04-25T06:08:44.139Z,1001.12
2019-04-25T06:09:44.362Z,1001.27
2019-04-25T06:10:45.203Z,1001.32
2019-04-25T06:11:43.774Z,1001.34
2019-04-25T06:12:44.152Z,1001.47
2019-04-25T06:13:43.487Z,1001.47
2019-04-25T06:14:44.458Z,1001.56
2019-04-25T06:15:43.656Z,1001.66
2019-04-25T06:16:43.935Z,1001.59
2019-04-25T06:17:44.048Z,1001.52
2019-04-25T06:18:44.948Z,1001.55
2019-04-25T06:19:44.281Z,1001.43
2019-04-25T06:20:44.512Z,1001.52
2019-04-25T06:21:44.648Z,1001.54
2019-04-25T06:22:44.842Z,1001.64
2019-04-25T06:23:46.070Z,1001.55
2019-04-25T06:24:45.165Z,1001.36
2019-04-25T06:25:45.297Z,1001.34
2019-04-25T06:26:45.445Z,1001.28
2019-04-25T06:27:56.437Z,1001.17
2019-04-25T06:28:53.750Z,1001.07
2019-04-25T06:29:57.667Z,1001.11
2019-04-25T06:30:48.173Z,1001.06
2019-04-25T06:31:46.931Z,1001.05
2019-04-25T06:32:46.524Z,1001.00
2019-04-25T06:33:46.787Z,1000.91
2019-04-25T06:34:46.951Z,1000.85
2019-04-25T06:35:47.180Z,1000.94
2019-04-25T06:36:47.429Z,1000.80
2019-04-25T06:37:47.579Z,1000.67
2019-04-25T06:38:47.681Z,1000.23
2019-04-25T06:39:47.934Z,1000.08
2019-04-25T06:40:48.048Z,999.97
2019-04-25T06:41:48.262Z,999.89
2019-04-25T06:42:48.525Z,1000.09
2019-04-25T06:43:48.643Z,999.96
2019-04-25T06:44:48.761Z,999.61
2019-04-25T06:45:50.283Z,999.60
2019-04-25T06:46:50.234Z,999.78
2019-04-25T06:47:49.952Z,999.92
2019-04-25T06:48:49.580Z,999.95
2019-04-25T06:49:49.723Z,999.99
2019-04-25T06:50:49.839Z,999.76
2019-04-25T06:51:50.090Z,999.68
2019-04-25T06:52:50.196Z,999.65
2019-04-25T06:53:50.334Z,999.73
2019-04-25T06:54:50.452Z,999.91
2019-04-25T06:55:50.702Z,1000.12
2019-04-25T06:56:53.422Z,1000.18
2019-04-25T06:57:51.056Z,1000.43
2019-04-25T06:58:51.161Z,1000.61
2019-04-25T06:59:51.380Z,1000.74
2019-04-25T07:00:58.773Z,1000.78
2019-04-25T07:01:55.985Z,1000.91
2019-04-25T07:02:53.244Z,1000.91
2019-04-25T07:03:53.984Z,1000.93
2019-04-25T07:04:53.920Z,1000.99
2019-04-25T07:05:53.542Z,1001.09
2019-04-25T07:06:53.495Z,1001.20
2019-04-25T07:07:53.908Z,1001.23
2019-04-25T07:08:53.093Z,1000.99
2019-04-25T07:09:53.544Z,1001.04
2019-04-25T07:10:55.330Z,1001.09
2019-04-25T07:11:53.914Z,1000.96
2019-04-25T07:12:54.821Z,1000.89
2019-04-25T07:13:54.032Z,1000.52
2019-04-25T07:14:54.277Z,999.97
2019-04-25T07:15:54.469Z,999.25
2019-04-25T07:16:54.580Z,998.75
2019-04-25T07:17:54.805Z,998.68
2019-04-25T07:18:54.917Z,998.96
2019-04-25T07:19:55.157Z,999.07
2019-04-25T07:20:55.266Z,999.30
2019-04-25T07:21:55.950Z,999.41
2019-04-25T07:22:55.571Z,999.42
2019-04-25T07:23:55.688Z,999.39
2019-04-25T07:24:55.826Z,999.41
2019-04-25T07:25:55.936Z,999.36
2019-04-25T07:26:56.063Z,999.33
2019-04-25T07:27:56.316Z,999.33
2019-04-25T07:28:56.471Z,999.24
2019-04-25T07:29:56.609Z,999.23
2019-04-25T07:30:56.782Z,999.19
2019-04-25T07:31:56.892Z,999.14
2019-04-25T07:32:57.041Z,999.11
2019-04-25T07:33:57.215Z,999.13
2019-04-25T07:34:58.383Z,998.97
2019-04-25T07:35:57.615Z,998.89
2019-04-25T07:36:57.799Z,998.94
2019-04-25T07:37:58.443Z,998.92
2019-04-25T07:39:05.778Z,998.96
2019-04-25T07:40:00.983Z,998.91
2019-04-25T07:40:58.428Z,998.88
2019-04-25T07:41:58.577Z,999.00
2019-04-25T07:42:58.710Z,999.05
2019-04-25T07:43:58.862Z,999.04
2019-04-25T07:44:59.052Z,999.07
2019-04-25T07:45:59.965Z,998.97
2019-04-25T07:46:59.346Z,999.06
2019-04-25T07:47:59.484Z,999.12
2019-04-25T07:48:59.670Z,999.07
2019-04-25T07:49:59.789Z,999.23
2019-04-25T07:51:00.962Z,999.16
2019-04-25T07:52:00.201Z,998.91
2019-04-25T07:53:00.339Z,998.96
2019-04-25T07:54:00.513Z,998.98
2019-04-25T07:55:00.653Z,999.16
2019-04-25T07:56:00.973Z,999.49
2019-04-25T07:57:01.027Z,999.18
2019-04-25T07:58:01.173Z,999.36
2019-04-25T07:59:01.319Z,999.38
2019-04-25T08:00:03.463Z,999.74
2019-04-25T08:01:03.780Z,999.73
2019-04-25T08:02:03.322Z,999.93
2019-04-25T08:03:01.990Z,999.87
2019-04-25T08:04:03.540Z,1000.08
2019-04-25T08:05:04.254Z,999.72
2019-04-25T08:06:05.221Z,999.65
2019-04-25T08:07:04.203Z,999.11
2019-04-25T08:08:04.088Z,998.38
2019-04-25T08:09:04.108Z,997.90
2019-04-25T08:10:04.079Z,997.55
2019-04-25T08:11:04.592Z,997.32
2019-04-25T08:12:03.974Z,996.99
2019-04-25T08:13:04.898Z,996.95
2019-04-25T08:14:04.958Z,997.15
2019-04-25T08:15:05.164Z,997.21
2019-04-25T08:16:04.396Z,997.44
2019-04-25T08:17:04.593Z,997.07
2019-04-25T08:18:04.976Z,997.13
2019-04-25T08:19:04.880Z,997.13
2019-04-25T08:20:05.058Z,997.25
2019-04-25T08:21:05.195Z,997.05
2019-04-25T08:22:05.399Z,997.47
2019-04-25T08:23:05.539Z,997.32
2019-04-25T08:24:05.765Z,997.14
2019-04-25T08:25:05.916Z,997.32
2019-04-25T08:26:06.026Z,997.14
2019-04-25T08:27:06.157Z,996.99
2019-04-25T08:28:06.396Z,996.92
2019-04-25T08:29:06.979Z,996.57
2019-04-25T08:30:06.708Z,996.63
2019-04-25T08:31:06.842Z,996.77
2019-04-25T08:32:07.974Z,997.04
2019-04-25T08:33:07.217Z,997.04
2019-04-25T08:34:07.355Z,997.23
2019-04-25T08:35:08.477Z,997.45
2019-04-25T08:36:09.236Z,997.36
2019-04-25T08:37:18.091Z,997.36
2019-04-25T08:38:10.966Z,997.52
2019-04-25T08:39:08.321Z,997.42
2019-04-25T08:40:08.978Z,997.50
2019-04-25T08:41:08.693Z,997.64
2019-04-25T08:42:08.945Z,997.43
2019-04-25T08:43:09.975Z,997.38
2019-04-25T08:44:09.205Z,997.51
2019-04-25T08:45:09.452Z,997.45
2019-04-25T08:46:09.592Z,997.49
2019-04-25T08:47:09.741Z,997.45
2019-04-25T08:48:10.391Z,997.53
2019-04-25T08:49:10.125Z,997.71
2019-04-25T08:50:10.271Z,997.54
2019-04-25T08:51:10.435Z,997.50
2019-04-25T08:52:10.568Z,997.62
2019-04-25T08:53:11.489Z,997.70
2019-04-25T08:54:10.867Z,997.74
2019-04-25T08:55:11.041Z,997.63
2019-04-25T08:56:13.345Z,997.61
2019-04-25T08:57:11.318Z,997.73
2019-04-25T08:58:11.467Z,997.58
2019-04-25T08:59:11.619Z,997.57
2019-04-25T09:00:14.257Z,997.68
2019-04-25T09:01:11.920Z,997.39
2019-04-25T09:02:13.584Z,997.30
2019-04-25T09:03:14.382Z,997.33
2019-04-25T09:04:13.295Z,997.20
2019-04-25T09:05:14.382Z,997.08
2019-04-25T09:06:13.898Z,997.09
2019-04-25T09:07:13.614Z,997.12
2019-04-25T09:08:14.207Z,997.14
2019-04-25T09:09:13.666Z,997.14
2019-04-25T09:10:15.185Z,997.31
2019-04-25T09:11:14.499Z,997.51
2019-04-25T09:12:14.108Z,997.66
2019-04-25T09:13:15.011Z,997.74
2019-04-25T09:14:14.113Z,998.28
2019-04-25T09:15:14.243Z,998.30
2019-04-25T09:16:15.556Z,998.47
2019-04-25T09:17:14.635Z,998.91
2019-04-25T09:18:14.767Z,999.00
2019-04-25T09:19:14.892Z,999.06
2019-04-25T09:20:15.030Z,999.31
2019-04-25T09:21:15.983Z,999.44
2019-04-25T09:22:15.350Z,999.42
2019-04-25T09:23:15.574Z,999.65
2019-04-25T09:24:16.501Z,999.70
2019-04-25T09:25:15.871Z,999.75
2019-04-25T09:26:17.012Z,999.88
2019-04-25T09:27:16.136Z,999.86
2019-04-25T09:28:16.261Z,1000.01
2019-04-25T09:29:19.592Z,1000.01
2019-04-25T09:30:17.534Z,1000.17
2019-04-25T09:31:16.768Z,1000.37
2019-04-25T09:32:16.899Z,1000.25
2019-04-25T09:33:17.160Z,1000.40
2019-04-25T09:34:17.325Z,1000.53
2019-04-25T09:35:20.068Z,1000.43
2019-04-25T09:36:18.498Z,1000.56
2019-04-25T09:37:18.496Z,1000.57
2019-04-25T09:38:18.078Z,1000.51
2019-04-25T09:39:18.207Z,1000.55
2019-04-25T09:40:18.348Z,1000.52
2019-04-25T09:41:18.486Z,1000.49
2019-04-25T09:42:19.487Z,1000.51
2019-04-25T09:43:19.026Z,1000.53
2019-04-25T09:44:19.034Z,1000.48
2019-04-25T09:45:19.150Z,1000.60
2019-04-25T09:46:20.017Z,1000.54
2019-04-25T09:47:20.503Z,1000.61
2019-04-25T09:48:19.745Z,1000.53
2019-04-25T09:49:19.862Z,1000.52
2019-04-25T09:50:19.988Z,1000.56
2019-04-25T09:51:20.166Z,1000.49
2019-04-25T09:52:20.298Z,1000.59
2019-04-25T09:53:23.612Z,1000.44
2019-04-25T09:54:23.776Z,1000.43
2019-04-25T09:55:20.699Z,1000.21
2019-04-25T09:56:20.817Z,1000.02
2019-04-25T09:57:20.954Z,999.81
2019-04-25T09:58:21.098Z,999.76
2019-04-25T09:59:27.237Z,999.68
2019-04-25T10:00:23.989Z,999.25
2019-04-25T10:01:23.994Z,999.46
2019-04-25T10:02:22.735Z,999.29
2019-04-25T10:03:23.343Z,999.17
2019-04-25T10:04:23.081Z,999.19
2019-04-25T10:05:23.900Z,999.10
2019-04-25T10:06:45.051Z,998.79
2019-04-25T10:07:23.639Z,998.83
2019-04-25T10:08:24.246Z,998.79
2019-04-25T10:09:24.008Z,998.55
2019-04-25T10:10:24.131Z,998.47
2019-04-25T10:11:24.016Z,998.30
2019-04-25T10:12:23.612Z,998.17
2019-04-25T10:13:25.176Z,998.09
2019-04-25T10:14:24.510Z,997.98
2019-04-25T10:15:25.189Z,998.01
2019-04-25T10:16:24.292Z,998.32
2019-04-25T10:17:25.012Z,997.97
2019-04-25T10:18:59.963Z,998.18
2019-04-25T10:19:24.762Z,998.23
2019-04-25T10:20:24.903Z,998.17
2019-04-25T10:21:26.032Z,998.24
2019-04-25T10:22:25.264Z,998.13
2019-04-25T10:23:26.034Z,998.42
2019-04-25T10:24:25.622Z,998.36
2019-04-25T10:25:25.747Z,998.43
2019-04-25T10:26:25.977Z,998.54
2019-04-25T10:27:26.121Z,998.58
2019-04-25T10:28:26.255Z,998.81
2019-04-25T10:29:26.407Z,998.70
2019-04-25T10:30:27.036Z,998.71
2019-04-25T10:31:26.690Z,998.60
2019-04-25T10:32:27.524Z,998.57
2019-04-25T10:33:27.034Z,998.78
2019-04-25T10:34:27.605Z,998.64
2019-04-25T10:35:27.374Z,998.73
2019-04-25T10:36:27.590Z,998.69
2019-04-25T10:37:28.546Z,998.76
2019-04-25T10:38:27.940Z,998.64
2019-04-25T10:39:28.116Z,998.76
2019-04-25T10:40:29.226Z,998.84
2019-04-25T10:41:29.079Z,998.87
2019-04-25T10:42:29.565Z,998.84
2019-04-25T10:43:28.786Z,998.72
2019-04-25T10:44:28.912Z,998.73
2019-04-25T10:45:29.074Z,998.78
2019-04-25T10:46:29.209Z,998.84
2019-04-25T10:47:29.350Z,999.02
2019-04-25T10:48:29.484Z,998.88
2019-04-25T10:49:29.596Z,998.94
2019-04-25T10:50:29.845Z,998.92
2019-04-25T10:51:29.997Z,998.91
2019-04-25T10:52:30.130Z,998.95
2019-04-25T10:53:30.256Z,999.01
2019-04-25T10:54:31.050Z,998.86
2019-04-25T10:55:30.507Z,998.94
2019-04-25T10:56:30.755Z,999.05
2019-04-25T10:57:30.903Z,999.11
2019-04-25T10:58:31.032Z,999.28
2019-04-25T10:59:31.187Z,999.28
2019-04-25T11:00:31.292Z,999.31
2019-04-25T11:01:31.439Z,999.25
2019-04-25T11:02:31.567Z,999.15
2019-04-25T11:03:33.317Z,999.13
2019-04-25T11:04:31.892Z,999.12
2019-04-25T11:05:32.044Z,998.94
2019-04-25T11:06:33.623Z,998.81
2019-04-25T11:07:33.932Z,998.81
2019-04-25T11:08:34.024Z,998.70
2019-04-25T11:09:34.245Z,998.74
2019-04-25T11:10:34.390Z,998.67
2019-04-25T11:11:34.243Z,998.76
2019-04-25T11:12:34.563Z,998.70
2019-04-25T11:13:35.481Z,998.70
2019-04-25T11:14:34.916Z,998.78
2019-04-25T11:15:34.142Z,998.67
2019-04-25T11:16:34.566Z,998.60
2019-04-25T11:17:35.065Z,998.47
2019-04-25T11:18:34.575Z,998.40
2019-04-25T11:19:37.168Z,998.24
2019-04-25T11:20:34.943Z,998.27
2019-04-25T11:21:35.092Z,998.40
2019-04-25T11:22:36.068Z,998.17
2019-04-25T11:23:35.457Z,998.23
2019-04-25T11:24:35.600Z,998.20
2019-04-25T11:25:36.072Z,998.27
2019-04-25T11:26:36.568Z,998.31
2019-04-25T11:27:36.112Z,998.29
2019-04-25T11:28:36.568Z,998.41
2019-04-25T11:29:36.556Z,998.38
2019-04-25T11:30:37.784Z,998.47
2019-04-25T11:31:37.585Z,998.59
2019-04-25T11:32:37.189Z,998.73
2019-04-25T11:33:37.572Z,998.72
2019-04-25T11:34:37.567Z,998.59
2019-04-25T11:35:37.671Z,998.64
2019-04-25T11:36:38.570Z,998.77
2019-04-25T11:37:38.557Z,998.71
2019-04-25T11:38:39.050Z,998.69
2019-04-25T11:39:38.562Z,998.76
2019-04-25T11:40:38.637Z,998.78
2019-04-25T11:41:38.872Z,998.65
2019-04-25T11:42:39.118Z,998.57
2019-04-25T11:43:39.231Z,998.42
2019-04-25T11:44:39.508Z,998.30
2019-04-25T11:45:39.629Z,998.24
2019-04-25T11:46:39.743Z,998.25
2019-04-25T11:47:39.877Z,998.33
2019-04-25T11:48:40.013Z,998.40
2019-04-25T11:49:40.602Z,998.21
2019-04-25T11:50:41.070Z,998.24
2019-04-25T11:51:40.524Z,998.14
2019-04-25T11:52:41.572Z,998.14
2019-04-25T11:53:40.807Z,998.10
2019-04-25T11:54:41.000Z,998.16
2019-04-25T11:55:41.154Z,998.19
2019-04-25T11:56:42.642Z,998.30
2019-04-25T11:57:44.138Z,998.12
2019-04-25T11:58:45.683Z,998.19
2019-04-25T11:59:41.977Z,998.16
2019-04-25T12:00:42.219Z,998.20
2019-04-25T12:01:44.962Z,998.11
2019-04-25T12:02:43.936Z,998.16
2019-04-25T12:03:45.089Z,998.20
2019-04-25T12:04:45.208Z,998.19
2019-04-25T12:05:45.575Z,998.02
2019-04-25T12:06:45.535Z,997.89
2019-04-25T12:07:45.294Z,997.93
2019-04-25T12:08:46.575Z,998.06
2019-04-25T12:09:45.803Z,997.94
2019-04-25T12:10:45.800Z,997.91
2019-04-25T12:11:46.878Z,997.88
2019-04-25T12:12:46.282Z,997.82
2019-04-25T12:13:47.798Z,997.77
2019-04-25T12:14:46.385Z,997.65
2019-04-25T12:15:46.076Z,997.63
2019-04-25T12:16:47.780Z,997.45